Time;durP1;ratioP1;P1;durP2;ratioP2;P2;SDS_P1;SDS_P2;PMS_P1;PMS_P2;Temp;Humidity;BMP_temperature;BMP_pressure;BME280_temperature;BME280_humidity;BME280_pressure;Samples;Min_cycle;Max_cycle;Signal;HPM_P1;HPM_P2
2021/01/04 00:02:11;;;;;;;15.87;11.23;;;3.90;99.90;;;;;;4911451;29;20266;-79
2021/01/04 00:05:01;;;;;;;12.93;9.90;;;3.90;99.90;;;;;;4922516;29;20163;-82
2021/01/04 00:07:33;;;;;;;13.37;9.77;;;3.80;99.90;;;;;;4917686;29;20183;-81
2021/01/04 00:10:20;;;;;;;14.67;11.33;;;3.80;99.90;;;;;;4915959;29;20174;-83
2021/01/04 00:13:01;;;;;;;13.87;10.67;;;3.80;99.90;;;;;;4915896;29;20217;-81
2021/01/04 00:15:53;;;;;;;14.57;11.07;;;3.80;99.90;;;;;;4908061;29;20182;-80
2021/01/04 00:18:59;;;;;;;14.13;10.50;;;3.80;99.90;;;;;;4918801;29;20218;-79
2021/01/04 00:28:14;;;;;;;15.67;11.60;;;3.80;99.90;;;;;;4908261;29;20173;-80
2021/01/04 00:34:48;;;;;;;13.23;10.97;;;3.80;99.90;;;;;;4916112;29;20246;-87
2021/01/04 00:37:48;;;;;;;14.27;10.50;;;3.80;99.90;;;;;;4903665;29;20202;-79
2021/01/04 00:40:53;;;;;;;12.57;10.60;;;3.80;99.90;;;;;;4906719;29;20205;-79
2021/01/04 00:43:35;;;;;;;13.73;11.70;;;3.90;99.90;;;;;;4917465;29;20176;-84
2021/01/04 00:46:01;;;;;;;13.90;11.77;;;3.90;99.90;;;;;;4909023;29;20239;-86
2021/01/04 00:48:46;;;;;;;11.73;9.83;;;3.90;99.90;;;;;;4909060;29;20189;-83
2021/01/04 00:51:37;;;;;;;13.07;10.97;;;3.90;99.90;;;;;;4909605;29;20182;-89
2021/01/04 00:54:39;;;;;;;12.50;10.40;;;3.90;99.90;;;;;;4911463;29;20206;-90
2021/01/04 00:57:11;;;;;;;12.07;9.80;;;3.90;99.90;;;;;;4862853;29;20186;-90
2021/01/04 01:00:16;;;;;;;14.20;10.50;;;3.90;99.90;;;;;;4912358;29;20198;-89
2021/01/04 01:03:09;;;;;;;13.23;9.97;;;3.90;99.90;;;;;;4900623;29;20178;-88
2021/01/04 01:06:02;;;;;;;11.93;9.70;;;3.90;99.90;;;;;;4916223;29;20194;-91
2021/01/04 01:08:34;;;;;;;13.27;11.10;;;3.90;99.90;;;;;;4914753;29;20178;-88
2021/01/04 01:11:19;;;;;;;13.27;10.50;;;3.90;99.90;;;;;;4911679;29;20190;-90
2021/01/04 01:14:05;;;;;;;13.07;9.67;;;4.00;99.90;;;;;;4892958;29;20229;-88
2021/01/04 01:16:58;;;;;;;12.90;10.90;;;3.90;99.90;;;;;;4907627;29;20197;-89
2021/01/04 01:19:36;;;;;;;13.43;10.40;;;3.90;99.90;;;;;;4900346;29;20210;-86
2021/01/04 01:22:04;;;;;;;12.90;10.80;;;4.00;99.90;;;;;;4920333;29;20231;-81
2021/01/04 01:24:31;;;;;;;12.23;9.90;;;3.90;99.90;;;;;;4921758;29;20163;-80
2021/01/04 01:27:29;;;;;;;12.30;10.53;;;3.90;99.90;;;;;;4919730;29;20191;-81
2021/01/04 01:30:23;;;;;;;14.50;10.10;;;3.80;99.90;;;;;;4917757;29;20169;-81
2021/01/04 01:33:07;;;;;;;12.97;10.60;;;3.70;99.90;;;;;;4918654;29;20202;-85
2021/01/04 01:36:08;;;;;;;14.27;10.93;;;3.70;99.90;;;;;;4921594;29;20173;-83
2021/01/04 01:38:56;;;;;;;12.13;10.10;;;3.70;99.90;;;;;;4907907;29;20189;-80
2021/01/04 01:41:46;;;;;;;14.10;11.30;;;3.70;99.90;;;;;;4915499;29;20174;-90
2021/01/04 01:44:38;;;;;;;16.77;12.83;;;3.60;99.90;;;;;;4906405;29;20645;-80
2021/01/04 01:47:28;;;;;;;14.70;12.20;;;3.70;99.90;;;;;;4903784;29;20193;-80
2021/01/04 01:50:10;;;;;;;14.87;11.63;;;3.60;99.90;;;;;;4887355;29;20198;-84
2021/01/04 01:52:51;;;;;;;13.70;10.77;;;3.60;99.90;;;;;;4920025;29;20190;-80
2021/01/04 01:55:39;;;;;;;15.27;12.13;;;3.60;99.90;;;;;;4902438;29;20174;-80
2021/01/04 01:58:31;;;;;;;14.97;11.73;;;3.60;99.90;;;;;;4902264;29;20615;-81
2021/01/04 02:01:14;;;;;;;17.47;13.63;;;3.60;99.90;;;;;;4901693;29;20238;-79
2021/01/04 02:03:59;;;;;;;15.50;12.97;;;3.60;99.90;;;;;;4901509;29;20639;-79
2021/01/04 02:07:07;;;;;;;15.10;12.63;;;3.60;99.90;;;;;;4902151;29;20186;-79
2021/01/04 02:09:48;;;;;;;16.70;13.10;;;3.60;99.90;;;;;;4915229;29;20234;-85
2021/01/04 02:12:49;;;;;;;16.23;13.00;;;3.60;99.90;;;;;;4920362;29;20162;-89
2021/01/04 02:15:22;;;;;;;15.83;13.07;;;3.60;99.90;;;;;;4907386;29;20194;-89
2021/01/04 02:18:10;;;;;;;16.13;13.27;;;3.60;99.90;;;;;;4904215;29;20178;-85
2021/01/04 02:21:13;;;;;;;15.67;11.97;;;3.60;99.90;;;;;;4907953;29;20166;-89
2021/01/04 02:23:42;;;;;;;15.23;12.90;;;3.50;99.90;;;;;;4907799;29;20178;-84
2021/01/04 02:26:42;;;;;;;15.70;12.43;;;3.50;99.90;;;;;;4905045;29;20329;-88
2021/01/04 02:29:16;;;;;;;14.83;11.93;;;3.50;99.90;;;;;;4864020;29;20184;-88
2021/01/04 02:31:46;;;;;;;17.77;13.60;;;3.40;99.90;;;;;;4848484;29;20183;-88
2021/01/04 02:34:21;;;;;;;16.03;12.20;;;3.40;99.90;;;;;;4864581;29;20269;-89
2021/01/04 02:36:55;;;;;;;16.03;13.23;;;3.40;99.90;;;;;;4865325;29;20175;-90
2021/01/04 02:42:45;;;;;;;14.67;12.03;;;3.50;99.90;;;;;;4910133;29;20205;-89
2021/01/04 02:45:32;;;;;;;15.63;12.43;;;3.50;99.90;;;;;;4895157;29;20179;-88
2021/01/04 02:48:22;;;;;;;16.77;12.47;;;3.50;99.90;;;;;;4922023;29;20162;-80
2021/01/04 02:50:56;;;;;;;16.77;13.23;;;3.50;99.90;;;;;;4917700;29;20183;-89
2021/01/04 02:54:10;;;;;;;16.67;13.50;;;3.50;99.90;;;;;;4912029;29;20273;-91
2021/01/04 03:00:01;;;;;;;16.00;12.10;;;3.50;99.90;;;;;;4915276;29;20173;-90
2021/01/04 03:09:13;;;;;;;16.93;13.47;;;3.40;99.90;;;;;;4905712;29;20210;-88
2021/01/04 03:11:42;;;;;;;14.07;10.97;;;3.40;99.90;;;;;;4914950;29;20187;-86
2021/01/04 03:18:10;;;;;;;17.57;14.27;;;3.40;99.90;;;;;;4919083;29;20256;-92
2021/01/04 03:21:19;;;;;;;17.57;14.03;;;3.50;99.90;;;;;;4901670;29;20698;-91
2021/01/04 03:23:52;;;;;;;17.33;12.67;;;3.50;99.90;;;;;;4902133;29;20214;-92
2021/01/04 03:26:22;;;;;;;15.03;11.57;;;3.50;99.90;;;;;;4902469;29;20166;-91
2021/01/04 03:28:51;;;;;;;16.67;12.60;;;3.50;99.90;;;;;;4910248;29;20178;-87
2021/01/04 03:31:23;;;;;;;15.73;11.87;;;3.40;99.90;;;;;;4912552;29;20605;-90
2021/01/04 03:33:50;;;;;;;14.70;11.83;;;3.50;99.90;;;;;;4911280;29;20206;-90
2021/01/04 03:36:21;;;;;;;15.73;12.77;;;3.50;99.90;;;;;;4917189;29;20175;-89
2021/01/04 03:38:50;;;;;;;16.07;12.40;;;3.50;99.90;;;;;;4913695;29;20213;-91
2021/01/04 03:41:19;;;;;;;18.30;13.80;;;3.50;99.90;;;;;;4915188;29;20166;-90
2021/01/04 03:43:46;;;;;;;16.23;13.37;;;3.50;99.90;;;;;;4918660;29;20194;-83
2021/01/04 03:46:14;;;;;;;14.90;13.20;;;3.50;99.90;;;;;;4920483;29;20159;-79
2021/01/04 03:49:01;;;;;;;14.63;12.47;;;3.50;99.90;;;;;;4921887;29;20170;-79
2021/01/04 03:51:27;;;;;;;15.30;12.20;;;3.50;99.90;;;;;;4922392;29;20178;-79
2021/01/04 03:53:53;;;;;;;18.13;13.57;;;3.50;99.90;;;;;;4906190;29;20232;-83
2021/01/04 03:56:22;;;;;;;17.20;13.73;;;3.50;99.90;;;;;;4919715;29;20286;-78
2021/01/04 03:58:49;;;;;;;17.53;13.23;;;3.50;99.90;;;;;;4918800;29;20186;-80
2021/01/04 04:01:18;;;;;;;16.37;12.63;;;3.50;99.90;;;;;;4916816;29;20674;-78
2021/01/04 04:04:25;;;;;;;18.27;13.77;;;3.50;99.90;;;;;;4918236;29;20181;-80
2021/01/04 04:07:23;;;;;;;16.40;12.57;;;3.50;99.90;;;;;;4918321;29;20185;-85
2021/01/04 04:10:26;;;;;;;14.17;12.10;;;3.50;99.90;;;;;;4916765;29;20233;-84
2021/01/04 04:13:05;;;;;;;18.13;13.33;;;3.50;99.90;;;;;;4904153;29;20195;-90
2021/01/04 04:18:53;;;;;;;14.23;11.13;;;3.50;99.90;;;;;;4911898;29;20251;-91
2021/01/04 04:21:49;;;;;;;14.67;12.50;;;3.50;99.90;;;;;;4902948;29;20178;-90
2021/01/04 04:27:36;;;;;;;14.73;12.30;;;3.50;99.90;;;;;;4902609;29;20165;-91
2021/01/04 04:33:24;;;;;;;15.30;12.17;;;3.50;99.90;;;;;;4911678;29;20217;-82
2021/01/04 04:36:00;;;;;;;15.23;11.93;;;3.50;99.90;;;;;;4916967;29;20178;-82
2021/01/04 04:45:17;;;;;;;16.10;13.23;;;3.50;99.90;;;;;;4917222;29;20178;-82
2021/01/04 04:48:06;;;;;;;16.37;13.40;;;3.50;99.90;;;;;;4915895;29;20210;-80
2021/01/04 04:50:51;;;;;;;17.73;13.87;;;3.50;99.90;;;;;;4914767;29;20194;-81
2021/01/04 04:57:25;;;;;;;16.33;12.30;;;3.50;99.90;;;;;;4918007;29;20222;-84
2021/01/04 05:00:30;;;;;;;13.33;11.50;;;3.40;99.90;;;;;;4915505;29;20189;-83
2021/01/04 05:03:34;;;;;;;16.47;13.43;;;3.40;99.90;;;;;;4915779;29;20170;-81
2021/01/04 05:09:59;;;;;;;16.03;12.20;;;3.30;99.90;;;;;;4909308;29;20238;-82
2021/01/04 05:12:59;;;;;;;17.03;12.67;;;3.30;99.90;;;;;;4906561;29;20185;-91
2021/01/04 05:19:04;;;;;;;18.80;14.17;;;3.30;99.90;;;;;;4912841;29;20177;-80
2021/01/04 05:25:21;;;;;;;16.20;12.43;;;3.30;99.90;;;;;;4919290;29;20170;-82
2021/01/04 05:28:12;;;;;;;17.60;12.67;;;3.30;99.90;;;;;;4909523;29;20672;-84
2021/01/04 05:34:03;;;;;;;17.80;11.63;;;3.20;99.90;;;;;;4905138;29;20213;-91
2021/01/04 05:37:14;;;;;;;17.57;13.80;;;3.20;99.90;;;;;;4903328;29;20182;-89
2021/01/04 05:43:08;;;;;;;19.37;14.43;;;3.10;99.90;;;;;;4912676;29;20181;-91
2021/01/04 05:49:27;;;;;;;21.57;16.33;;;3.20;99.90;;;;;;4917475;29;20694;-91
2021/01/04 05:52:17;;;;;;;19.27;14.80;;;3.20;99.90;;;;;;4913321;29;20170;-92
2021/01/04 05:55:38;;;;;;;17.37;14.07;;;3.20;99.90;;;;;;4903449;29;20210;-81
2021/01/04 05:58:43;;;;;;;18.53;15.10;;;3.30;99.90;;;;;;4903303;29;20177;-82
2021/01/04 06:01:45;;;;;;;18.67;15.17;;;3.30;99.90;;;;;;4903442;29;20198;-91
2021/01/04 06:04:48;;;;;;;22.53;16.67;;;3.30;99.90;;;;;;4904446;29;20173;-92
2021/01/04 06:10:37;;;;;;;20.57;15.70;;;3.30;99.90;;;;;;4909236;29;20178;-89
2021/01/04 06:13:05;;;;;;;22.23;16.13;;;3.30;99.90;;;;;;4913557;29;20196;-82
2021/01/04 06:15:36;;;;;;;20.07;15.33;;;3.30;99.90;;;;;;4918462;29;20685;-82
2021/01/04 06:21:31;;;;;;;23.67;16.77;;;3.40;99.90;;;;;;4919328;29;20157;-79
2021/01/04 06:24:02;;;;;;;21.43;16.00;;;3.40;99.90;;;;;;4920518;29;20155;-84
2021/01/04 06:26:31;;;;;;;21.33;15.97;;;3.30;99.90;;;;;;4918385;29;20187;-81
2021/01/04 06:29:04;;;;;;;19.83;14.17;;;3.30;99.90;;;;;;4917916;29;20163;-81
2021/01/04 06:31:34;;;;;;;20.97;17.00;;;3.30;99.90;;;;;;4921679;29;20166;-82
2021/01/04 06:34:05;;;;;;;21.50;17.17;;;3.30;99.90;;;;;;4923401;29;20205;-80
2021/01/04 06:36:35;;;;;;;25.07;19.37;;;3.40;99.90;;;;;;4916897;29;20178;-81
2021/01/04 06:39:19;;;;;;;22.83;16.93;;;3.30;99.90;;;;;;4916817;29;20167;-82
2021/01/04 06:41:45;;;;;;;23.63;16.87;;;3.30;99.90;;;;;;4902450;29;20179;-81
2021/01/04 06:44:19;;;;;;;24.57;17.17;;;3.30;99.90;;;;;;4886511;29;20175;-86
2021/01/04 06:47:06;;;;;;;24.50;17.37;;;3.30;99.90;;;;;;4895817;29;20226;-84
2021/01/04 06:50:10;;;;;;;21.47;15.83;;;3.40;99.90;;;;;;4918350;29;20667;-79
2021/01/04 06:53:17;;;;;;;24.47;17.53;;;3.40;99.90;;;;;;4907739;29;20643;-87
2021/01/04 06:59:23;;;;;;;22.97;17.93;;;3.40;99.90;;;;;;4839532;29;20179;-82
2021/01/04 07:02:16;;;;;;;23.53;18.17;;;3.40;99.90;;;;;;4915760;29;20210;-89
2021/01/04 07:05:20;;;;;;;23.43;17.17;;;3.40;99.90;;;;;;4907566;29;20193;-81
2021/01/04 07:08:07;;;;;;;25.03;17.80;;;3.40;99.90;;;;;;4890875;29;20174;-80
2021/01/04 07:10:48;;;;;;;24.30;18.43;;;3.40;99.90;;;;;;4894608;29;20691;-81
2021/01/04 07:13:46;;;;;;;22.80;17.63;;;3.40;99.90;;;;;;4909132;29;20206;-79
2021/01/04 07:16:30;;;;;;;23.40;18.37;;;3.40;99.90;;;;;;4877966;29;20242;-80
2021/01/04 07:19:10;;;;;;;21.30;15.73;;;3.40;99.90;;;;;;4898618;29;20258;-82
2021/01/04 07:21:55;;;;;;;24.60;18.27;;;3.40;99.90;;;;;;4892014;29;20178;-82
2021/01/04 07:24:40;;;;;;;24.53;18.30;;;3.40;99.90;;;;;;4886975;29;20266;-82
2021/01/04 07:27:30;;;;;;;25.10;17.67;;;3.40;99.90;;;;;;4885010;29;20179;-90
2021/01/04 07:29:58;;;;;;;26.17;18.47;;;3.40;99.90;;;;;;4882530;29;20258;-81
2021/01/04 07:32:37;;;;;;;22.27;16.33;;;3.50;99.90;;;;;;4883446;29;20200;-83
2021/01/04 07:35:17;;;;;;;27.47;17.17;;;3.40;99.90;;;;;;4881841;29;20210;-83
2021/01/04 07:38:20;;;;;;;25.37;19.37;;;3.40;99.90;;;;;;4899038;29;20170;-82
2021/01/04 07:41:20;;;;;;;23.33;17.20;;;3.30;99.90;;;;;;4898775;29;20189;-84
2021/01/04 07:43:52;;;;;;;24.77;17.80;;;3.50;99.90;;;;;;4904185;29;20189;-88
2021/01/04 07:46:47;;;;;;;25.77;18.13;;;3.50;99.90;;;;;;4904615;29;20174;-87
2021/01/04 07:49:28;;;;;;;25.27;18.50;;;3.40;99.90;;;;;;4882590;29;20198;-84
2021/01/04 07:53:01;;;;;;;24.83;17.93;;;3.50;99.90;;;;;;5091346;28;20528;-87
2021/01/04 07:55:36;;;;;;;24.57;18.03;;;3.40;99.90;;;;;;5029134;28;20540;-88
2021/01/04 07:58:38;;;;;;;25.03;18.47;;;3.50;99.90;;;;;;5015845;28;20187;-86
2021/01/04 08:01:24;;;;;;;26.43;18.20;;;3.50;99.90;;;;;;5062398;28;20208;-86
2021/01/04 08:04:13;;;;;;;25.87;17.50;;;3.50;99.90;;;;;;5073318;28;20176;-84
2021/01/04 08:06:50;;;;;;;26.13;18.67;;;3.50;99.90;;;;;;5070915;28;20240;-84
2021/01/04 08:09:33;;;;;;;26.37;19.23;;;3.50;99.90;;;;;;5071893;28;20176;-88
2021/01/04 08:12:19;;;;;;;23.30;17.70;;;3.60;99.90;;;;;;5074265;28;20215;-85
2021/01/04 08:15:22;;;;;;;24.87;17.40;;;3.50;99.90;;;;;;5052966;28;20195;-85
2021/01/04 08:17:50;;;;;;;24.00;16.97;;;3.40;99.90;;;;;;5051624;28;20710;-81
2021/01/04 08:20:17;;;;;;;24.93;17.53;;;3.50;99.90;;;;;;5070319;28;20215;-85
2021/01/04 08:22:51;;;;;;;25.17;18.93;;;3.40;99.90;;;;;;5096258;28;20207;-82
2021/01/04 08:25:36;;;;;;;28.47;19.00;;;3.50;99.90;;;;;;5069422;28;20163;-88
2021/01/04 08:28:32;;;;;;;25.53;18.27;;;3.50;99.90;;;;;;5096435;28;20171;-86
2021/01/04 08:31:30;;;;;;;27.73;19.77;;;3.50;99.90;;;;;;5088133;28;20196;-85
2021/01/04 08:34:04;;;;;;;26.80;19.10;;;3.50;99.90;;;;;;5077923;28;20168;-85
2021/01/04 08:36:33;;;;;;;27.17;19.87;;;3.50;99.90;;;;;;5083572;28;20176;-85
2021/01/04 08:39:11;;;;;;;26.10;20.90;;;3.50;99.90;;;;;;5090111;28;20244;-87
2021/01/04 08:41:38;;;;;;;25.90;19.37;;;3.50;99.90;;;;;;5058294;28;20196;-84
2021/01/04 08:44:14;;;;;;;23.97;17.30;;;3.50;99.90;;;;;;5054456;28;20244;-84
2021/01/04 08:46:39;;;;;;;28.60;21.20;;;3.50;99.90;;;;;;5054688;28;20184;-90
2021/01/04 08:49:15;;;;;;;26.07;18.33;;;3.40;99.90;;;;;;5068603;28;20169;-83
2021/01/04 08:51:42;;;;;;;27.57;20.33;;;3.40;99.90;;;;;;5058118;28;20242;-82
2021/01/04 08:54:10;;;;;;;25.07;19.10;;;3.50;99.90;;;;;;5084813;28;20190;-85
2021/01/04 08:56:50;;;;;;;26.00;18.63;;;3.50;99.90;;;;;;5072061;28;20183;-84
2021/01/04 08:59:33;;;;;;;24.83;16.77;;;3.50;99.90;;;;;;5073534;28;20226;-86
2021/01/04 09:02:45;;;;;;;25.57;19.50;;;3.50;99.90;;;;;;5053701;28;20178;-90
2021/01/04 09:05:14;;;;;;;25.43;18.07;;;3.40;99.90;;;;;;5040296;28;20177;-83
2021/01/04 09:07:49;;;;;;;26.57;19.50;;;3.50;99.90;;;;;;5058744;28;20193;-84
2021/01/04 09:10:17;;;;;;;26.80;20.43;;;3.50;99.90;;;;;;5053955;28;20199;-89
2021/01/04 09:12:51;;;;;;;25.87;19.43;;;3.50;99.90;;;;;;5054371;28;20174;-86
2021/01/04 09:15:21;;;;;;;25.23;17.87;;;3.50;99.90;;;;;;5058556;28;20173;-87
2021/01/04 09:17:49;;;;;;;24.40;17.80;;;3.50;99.90;;;;;;5052416;28;20180;-84
2021/01/04 09:20:18;;;;;;;23.13;17.57;;;3.50;99.90;;;;;;5068692;28;20185;-88
2021/01/04 09:22:44;;;;;;;23.70;18.13;;;3.50;99.90;;;;;;5042776;28;20174;-87
2021/01/04 09:25:26;;;;;;;24.10;19.10;;;3.50;99.90;;;;;;5056001;28;20181;-87
2021/01/04 09:27:56;;;;;;;24.33;19.17;;;3.60;99.90;;;;;;5054257;28;20175;-88
2021/01/04 09:31:03;;;;;;;24.10;16.63;;;3.60;99.90;;;;;;5038470;28;20258;-84
2021/01/04 09:33:29;;;;;;;23.53;16.93;;;3.60;99.90;;;;;;5038507;28;20225;-87
2021/01/04 09:36:08;;;;;;;24.60;18.10;;;3.60;99.90;;;;;;5056604;28;20197;-85
2021/01/04 09:38:34;;;;;;;21.20;16.43;;;3.50;99.90;;;;;;5036791;28;20173;-85
2021/01/04 09:41:04;;;;;;;22.23;16.57;;;3.70;99.90;;;;;;5037343;28;20276;-87
2021/01/04 09:43:32;;;;;;;24.17;17.63;;;3.50;99.90;;;;;;5052720;28;20227;-87
2021/01/04 09:46:10;;;;;;;23.17;16.77;;;3.50;99.90;;;;;;5069954;28;20259;-84
2021/01/04 09:49:14;;;;;;;22.20;16.10;;;3.50;99.90;;;;;;5037536;28;20169;-87
2021/01/04 09:51:51;;;;;;;24.60;16.03;;;3.50;99.90;;;;;;5038490;28;20241;-85
2021/01/04 09:54:31;;;;;;;21.00;16.00;;;3.50;99.90;;;;;;5040424;28;20676;-83
2021/01/04 09:57:01;;;;;;;22.40;18.47;;;3.50;99.90;;;;;;5044119;28;20260;-84
2021/01/04 09:59:28;;;;;;;21.37;17.10;;;3.60;99.90;;;;;;5039819;28;20660;-85
2021/01/04 10:02:00;;;;;;;23.57;18.23;;;3.60;99.90;;;;;;5039942;28;20224;-86
2021/01/04 10:04:42;;;;;;;21.87;16.43;;;3.70;99.90;;;;;;5036198;28;20216;-88
2021/01/04 10:07:15;;;;;;;21.20;16.80;;;3.70;99.90;;;;;;5053750;28;20181;-86
2021/01/04 10:09:51;;;;;;;21.17;17.87;;;3.70;99.90;;;;;;5041914;28;20177;-82
2021/01/04 10:12:23;;;;;;;20.67;15.27;;;3.80;99.90;;;;;;5046382;28;20185;-86
2021/01/04 10:14:55;;;;;;;24.10;17.77;;;3.70;99.90;;;;;;5044555;28;20189;-85
2021/01/04 10:17:36;;;;;;;24.33;18.63;;;3.70;99.90;;;;;;5035271;28;20170;-85
2021/01/04 10:20:14;;;;;;;21.60;16.40;;;3.70;99.90;;;;;;5036174;28;20176;-84
2021/01/04 10:22:46;;;;;;;24.10;18.77;;;3.60;99.90;;;;;;5035302;28;20207;-86
2021/01/04 10:25:30;;;;;;;20.97;16.43;;;3.70;99.90;;;;;;5036232;28;20166;-87
2021/01/04 10:27:58;;;;;;;22.27;17.40;;;3.70;99.90;;;;;;5035296;28;20181;-83
2021/01/04 10:30:26;;;;;;;22.13;17.53;;;3.70;99.90;;;;;;5035376;28;20561;-83
2021/01/04 10:33:10;;;;;;;20.97;16.47;;;3.70;99.90;;;;;;5034426;28;20272;-84
2021/01/04 10:35:36;;;;;;;20.80;16.60;;;3.70;99.90;;;;;;5034650;28;20273;-83
2021/01/04 10:38:18;;;;;;;23.63;18.23;;;3.70;99.90;;;;;;5034963;28;20201;-87
2021/01/04 10:40:48;;;;;;;21.73;17.37;;;3.70;99.90;;;;;;5038026;28;20223;-85
2021/01/04 10:43:26;;;;;;;24.33;18.33;;;3.70;99.90;;;;;;5023561;28;20263;-83
2021/01/04 10:45:52;;;;;;;22.70;18.53;;;3.80;99.90;;;;;;5059988;28;20184;-83
2021/01/04 10:48:26;;;;;;;23.60;19.37;;;3.70;99.90;;;;;;5075627;28;20233;-86
2021/01/04 10:50:54;;;;;;;23.57;18.93;;;3.70;99.90;;;;;;5075488;28;20215;-85
2021/01/04 10:53:39;;;;;;;24.73;20.03;;;3.80;99.90;;;;;;5074544;28;20183;-82
2021/01/04 10:56:22;;;;;;;24.00;20.17;;;3.80;99.90;;;;;;5075136;28;20635;-83
2021/01/04 10:58:55;;;;;;;22.57;17.23;;;3.90;99.90;;;;;;5073951;28;20206;-86
2021/01/04 11:01:35;;;;;;;22.53;18.53;;;3.90;99.90;;;;;;5075616;28;20197;-82
2021/01/04 11:04:12;;;;;;;22.80;18.10;;;3.80;99.90;;;;;;5075446;28;20179;-87
2021/01/04 11:06:41;;;;;;;23.03;18.47;;;3.80;99.90;;;;;;5074179;28;20615;-83
2021/01/04 11:09:28;;;;;;;23.20;18.17;;;3.70;99.90;;;;;;5080600;28;20168;-83
2021/01/04 11:12:28;;;;;;;24.33;19.17;;;3.70;99.90;;;;;;5094988;28;20191;-84
2021/01/04 11:14:59;;;;;;;22.50;17.93;;;3.70;99.90;;;;;;5077347;28;20271;-85
2021/01/04 11:17:35;;;;;;;22.80;17.53;;;3.70;99.90;;;;;;5074415;28;20609;-85
2021/01/04 11:20:15;;;;;;;25.20;18.90;;;3.70;99.90;;;;;;5073238;28;20186;-82
2021/01/04 11:22:41;;;;;;;24.20;17.50;;;3.70;99.90;;;;;;5075384;28;20559;-81
2021/01/04 11:25:09;;;;;;;24.10;18.07;;;3.70;99.90;;;;;;5075994;28;20172;-83
2021/01/04 11:27:34;;;;;;;22.97;18.77;;;3.70;99.90;;;;;;5081051;28;20173;-80
2021/01/04 11:30:00;;;;;;;24.13;19.50;;;3.80;99.90;;;;;;5095680;28;20171;-83
2021/01/04 11:32:26;;;;;;;24.23;18.90;;;4.10;99.90;;;;;;5082084;28;20623;-84
2021/01/04 11:35:00;;;;;;;23.93;19.90;;;3.90;99.90;;;;;;5075427;28;20183;-88
2021/01/04 11:37:28;;;;;;;24.03;19.20;;;4.00;99.90;;;;;;5073623;28;20179;-88
2021/01/04 11:39:54;;;;;;;25.87;18.87;;;4.00;99.90;;;;;;5093475;28;20175;-82
2021/01/04 11:42:23;;;;;;;26.03;20.10;;;4.00;99.90;;;;;;5076892;28;20171;-87
2021/01/04 11:44:50;;;;;;;25.37;20.50;;;4.00;99.90;;;;;;5070126;28;20720;-87
2021/01/04 11:47:18;;;;;;;25.67;20.10;;;4.00;99.90;;;;;;5046864;28;20192;-84
2021/01/04 11:49:44;;;;;;;25.40;20.43;;;3.90;99.90;;;;;;5074619;28;20621;-89
2021/01/04 11:52:11;;;;;;;23.33;18.77;;;4.00;99.90;;;;;;5080268;28;20223;-85
2021/01/04 11:54:41;;;;;;;24.70;20.27;;;4.00;99.90;;;;;;5079611;28;20222;-84
2021/01/04 11:57:07;;;;;;;26.23;20.33;;;3.90;99.90;;;;;;5088083;28;20263;-87
2021/01/04 11:59:35;;;;;;;25.17;21.03;;;3.90;99.90;;;;;;5087822;28;20188;-88
2021/01/04 12:02:01;;;;;;;25.30;20.93;;;3.90;99.90;;;;;;5084543;28;20200;-86
2021/01/04 12:04:27;;;;;;;26.07;19.97;;;3.90;99.90;;;;;;5076493;28;20631;-86
2021/01/04 12:06:55;;;;;;;26.80;21.83;;;4.10;99.90;;;;;;5075343;28;20173;-84
2021/01/04 12:09:24;;;;;;;21.77;16.70;;;3.90;99.90;;;;;;5075686;28;20183;-89
2021/01/04 12:11:52;;;;;;;24.73;18.70;;;3.90;99.90;;;;;;5076428;28;20322;-86
2021/01/04 12:14:20;;;;;;;26.77;20.97;;;3.80;99.90;;;;;;5077233;28;20172;-88
2021/01/04 12:16:46;;;;;;;26.20;20.43;;;3.90;99.90;;;;;;5081508;28;20333;-87
2021/01/04 12:19:16;;;;;;;27.53;20.20;;;3.90;99.90;;;;;;5085348;28;20168;-82
2021/01/04 12:21:44;;;;;;;26.70;19.73;;;4.10;99.90;;;;;;5090991;28;20187;-82
2021/01/04 12:24:10;;;;;;;22.73;17.10;;;3.90;99.90;;;;;;5087481;28;20168;-83
2021/01/04 12:26:37;;;;;;;26.43;19.43;;;3.90;99.90;;;;;;5087091;28;20186;-87
2021/01/04 12:29:06;;;;;;;25.67;19.23;;;3.90;99.90;;;;;;5092622;28;20214;-84
2021/01/04 12:31:37;;;;;;;21.93;15.37;;;3.90;99.90;;;;;;5084581;28;20208;-84
2021/01/04 12:34:08;;;;;;;25.20;18.67;;;3.80;99.90;;;;;;5077361;28;20620;-83
2021/01/04 12:36:36;;;;;;;21.27;15.23;;;3.80;99.90;;;;;;5076914;28;20176;-83
2021/01/04 12:39:04;;;;;;;24.70;17.53;;;3.80;99.90;;;;;;5078662;28;20166;-83
2021/01/04 12:41:39;;;;;;;27.03;19.37;;;3.80;99.90;;;;;;5093309;28;20231;-84
2021/01/04 12:44:14;;;;;;;25.13;18.63;;;3.80;99.90;;;;;;5093210;28;20160;-81
2021/01/04 12:46:49;;;;;;;24.63;18.47;;;3.80;99.90;;;;;;5085545;28;20182;-83
2021/01/04 12:49:25;;;;;;;27.83;20.67;;;3.90;99.90;;;;;;5081681;28;20238;-84
2021/01/04 12:51:58;;;;;;;24.37;17.80;;;3.90;99.90;;;;;;5078857;28;20212;-84
2021/01/04 12:54:44;;;;;;;27.80;21.17;;;3.90;99.90;;;;;;5077781;28;20173;-82
2021/01/04 12:57:10;;;;;;;25.90;19.17;;;3.90;99.90;;;;;;5077366;28;20258;-83
2021/01/04 12:59:42;;;;;;;27.50;21.10;;;3.80;99.90;;;;;;5076770;28;20200;-86
2021/01/04 13:02:10;;;;;;;21.43;15.27;;;3.70;99.90;;;;;;5078520;28;20180;-85
2021/01/04 13:04:42;;;;;;;28.87;18.60;;;3.90;99.90;;;;;;5078532;28;20632;-82
2021/01/04 13:07:09;;;;;;;27.37;20.03;;;3.90;99.90;;;;;;5087008;28;20184;-84
2021/01/04 13:09:34;;;;;;;26.90;20.33;;;3.90;99.90;;;;;;5098840;28;20161;-84
2021/01/04 13:12:02;;;;;;;25.83;19.20;;;4.00;99.90;;;;;;5096259;28;20338;-83
2021/01/04 13:14:33;;;;;;;25.70;20.17;;;4.00;99.90;;;;;;5086108;28;20202;-83
2021/01/04 13:16:59;;;;;;;27.50;20.60;;;4.00;99.90;;;;;;5078936;28;20187;-82
2021/01/04 13:20:15;;;;;;;27.67;20.90;;;4.00;99.90;;;;;;5076954;28;20231;-82
2021/01/04 13:22:42;;;;;;;27.83;19.33;;;4.10;99.90;;;;;;5077620;28;20171;-81
2021/01/04 13:25:10;;;;;;;24.43;19.47;;;4.10;99.90;;;;;;5075981;28;20268;-83
2021/01/04 13:27:36;;;;;;;26.27;20.53;;;4.10;99.90;;;;;;5076411;28;20176;-84
2021/01/04 13:30:03;;;;;;;25.20;20.70;;;4.10;99.90;;;;;;5077478;28;20179;-83
2021/01/04 13:32:33;;;;;;;26.30;18.93;;;3.90;99.90;;;;;;5078133;28;20192;-83
2021/01/04 13:34:59;;;;;;;25.53;20.20;;;3.90;99.90;;;;;;5060849;28;20172;-83
2021/01/04 13:37:31;;;;;;;26.33;20.57;;;3.90;99.90;;;;;;5079527;28;20229;-83
2021/01/04 13:40:00;;;;;;;26.90;20.67;;;3.90;99.90;;;;;;5075988;28;20165;-83
2021/01/04 13:42:26;;;;;;;26.03;19.20;;;3.90;99.90;;;;;;5081898;28;20191;-84
2021/01/04 13:44:54;;;;;;;27.83;20.50;;;4.10;99.90;;;;;;5087445;28;20244;-81
2021/01/04 13:47:20;;;;;;;24.73;17.47;;;3.90;99.90;;;;;;5072981;28;20193;-83
2021/01/04 13:49:50;;;;;;;26.27;20.20;;;3.90;99.90;;;;;;5064394;28;20231;-83
2021/01/04 13:52:50;;;;;;;24.43;20.30;;;3.80;99.90;;;;;;5062130;28;20209;-85
2021/01/04 13:55:16;;;;;;;21.63;15.40;;;3.80;99.90;;;;;;5058398;28;20680;-83
2021/01/04 13:57:47;;;;;;;24.53;19.60;;;3.80;99.90;;;;;;5058121;28;20169;-84
2021/01/04 14:00:20;;;;;;;24.10;18.33;;;3.70;99.90;;;;;;5056841;28;20193;-83
2021/01/04 14:02:46;;;;;;;25.73;19.40;;;3.80;99.90;;;;;;5065763;28;20208;-84
2021/01/04 14:05:16;;;;;;;23.27;18.87;;;3.80;99.90;;;;;;5059103;28;20165;-83
2021/01/04 14:07:48;;;;;;;23.80;18.17;;;3.80;99.90;;;;;;5063280;28;20275;-84
2021/01/04 14:10:36;;;;;;;21.77;18.40;;;3.70;99.90;;;;;;5060161;28;20525;-83
2021/01/04 14:13:02;;;;;;;22.03;16.30;;;3.70;99.90;;;;;;5057342;28;20210;-83
2021/01/04 14:15:29;;;;;;;21.13;17.33;;;3.70;99.90;;;;;;5056562;28;20168;-86
2021/01/04 14:18:13;;;;;;;23.30;18.60;;;3.80;99.90;;;;;;5057888;28;20229;-85
2021/01/04 14:20:38;;;;;;;21.23;16.90;;;3.70;99.90;;;;;;5057613;28;20260;-84
2021/01/04 14:23:05;;;;;;;22.87;19.23;;;3.70;99.90;;;;;;5055968;28;20177;-84
2021/01/04 14:25:31;;;;;;;21.50;16.33;;;3.70;99.90;;;;;;5055210;28;20177;-84
2021/01/04 14:27:57;;;;;;;22.73;18.23;;;3.70;99.90;;;;;;5054914;28;20585;-84
2021/01/04 14:30:24;;;;;;;19.73;15.70;;;3.70;99.90;;;;;;5054398;28;20239;-84
2021/01/04 14:32:50;;;;;;;19.40;16.07;;;3.70;99.90;;;;;;5055066;28;20219;-84
2021/01/04 14:35:16;;;;;;;20.73;17.87;;;3.70;99.90;;;;;;5058236;28;20169;-82
2021/01/04 14:37:41;;;;;;;22.47;18.00;;;3.70;99.90;;;;;;5054889;28;20169;-83
2021/01/04 14:40:08;;;;;;;21.27;17.17;;;3.70;99.90;;;;;;5054694;28;20169;-83
2021/01/04 14:42:33;;;;;;;20.77;16.37;;;3.70;99.90;;;;;;5058426;28;20177;-82
2021/01/04 14:44:59;;;;;;;19.43;15.90;;;3.70;99.90;;;;;;5058323;28;20204;-82
2021/01/04 14:47:25;;;;;;;21.23;14.60;;;3.80;99.90;;;;;;5065787;28;20152;-81
2021/01/04 14:49:50;;;;;;;21.03;17.53;;;3.60;99.90;;;;;;5074981;28;20165;-85
2021/01/04 14:52:18;;;;;;;17.83;15.40;;;3.70;99.90;;;;;;5061522;28;20201;-82
2021/01/04 14:54:49;;;;;;;20.40;16.90;;;3.70;99.90;;;;;;5072371;28;20176;-82